OMDB

Dubai International Airport

Dubai, United Arab Emirates
METAR OMDB 221500Z 03008KT 010V070 CAVOK 36/11 Q1008 NOSIG
Observed Flight Rules
May-22 @ 15:00 UTC (36 minutes ago) Visual Flight Rules
Wind Visibility Clouds
30° at 8 knots 10,000+ meters
  • Clear skies
Temperatures Readings
Current 36°C / 97°F
Dewpoint 11°C / 52°F
Humidity 22%
Altimeter 29.76" Hg
Pressure 1008 hPa
Elevation 5
METAR OMDB 221500Z 03008KT 010V070 CAVOK 36/11 Q1008 NOSIG
Observed Flight Rules
May-22 @ 15:00 UTC
(36 minutes ago)
VFR
Wind Visibility
30° at 8 knots 10,000+ meters
Clouds
  • Clear skies
Temperature Dewpoint
36°C / 97°F 11°C / 52°F
Humidity Altimeter Pressure
22% 29.76" Hg 1008 hPa